sensor_id;sensor_type;location;lat;lon;timestamp;temperature;humidity
79698;SHT31;69168;42.708;23.286;2023-07-13T00:00:25;24.68;54.16
79698;SHT31;69168;42.708;23.286;2023-07-13T00:02:51;24.54;54.64
79698;SHT31;69168;42.708;23.286;2023-07-13T00:05:22;24.30;55.66
79698;SHT31;69168;42.708;23.286;2023-07-13T00:07:49;24.35;55.09
79698;SHT31;69168;42.708;23.286;2023-07-13T00:10:15;24.15;55.27
79698;SHT31;69168;42.708;23.286;2023-07-13T00:12:41;24.39;55.02
79698;SHT31;69168;42.708;23.286;2023-07-13T00:15:12;24.50;55.42
79698;SHT31;69168;42.708;23.286;2023-07-13T00:17:38;24.26;55.97
79698;SHT31;69168;42.708;23.286;2023-07-13T00:20:05;24.47;55.63
79698;SHT31;69168;42.708;23.286;2023-07-13T00:22:31;24.43;55.88
79698;SHT31;69168;42.708;23.286;2023-07-13T00:24:56;24.47;55.95
79698;SHT31;69168;42.708;23.286;2023-07-13T00:27:22;24.36;56.54
79698;SHT31;69168;42.708;23.286;2023-07-13T00:29:48;24.46;56.37
79698;SHT31;69168;42.708;23.286;2023-07-13T00:32:14;24.30;56.97
79698;SHT31;69168;42.708;23.286;2023-07-13T00:34:39;24.40;56.80
79698;SHT31;69168;42.708;23.286;2023-07-13T00:37:07;24.37;57.25
79698;SHT31;69168;42.708;23.286;2023-07-13T00:39:33;24.18;58.09
79698;SHT31;69168;42.708;23.286;2023-07-13T00:42:00;23.97;58.96
79698;SHT31;69168;42.708;23.286;2023-07-13T00:44:26;23.73;59.84
79698;SHT31;69168;42.708;23.286;2023-07-13T00:46:52;23.75;59.90
79698;SHT31;69168;42.708;23.286;2023-07-13T00:49:20;23.60;60.55
79698;SHT31;69168;42.708;23.286;2023-07-13T00:51:48;23.44;61.03
79698;SHT31;69168;42.708;23.286;2023-07-13T00:54:18;23.63;60.94
79698;SHT31;69168;42.708;23.286;2023-07-13T00:56:47;23.84;60.36
79698;SHT31;69168;42.708;23.286;2023-07-13T00:59:15;23.98;59.45
79698;SHT31;69168;42.708;23.286;2023-07-13T01:01:42;24.02;58.35
79698;SHT31;69168;42.708;23.286;2023-07-13T01:04:07;24.06;58.37
79698;SHT31;69168;42.708;23.286;2023-07-13T01:06:35;24.05;59.02
79698;SHT31;69168;42.708;23.286;2023-07-13T01:09:01;23.95;58.76
79698;SHT31;69168;42.708;23.286;2023-07-13T01:11:27;23.95;59.38
79698;SHT31;69168;42.708;23.286;2023-07-13T01:13:53;23.94;59.70
79698;SHT31;69168;42.708;23.286;2023-07-13T01:16:26;23.92;59.60
79698;SHT31;69168;42.708;23.286;2023-07-13T01:18:51;23.79;59.24
79698;SHT31;69168;42.708;23.286;2023-07-13T01:21:17;23.97;57.91
79698;SHT31;69168;42.708;23.286;2023-07-13T01:23:44;23.78;57.81
79698;SHT31;69168;42.708;23.286;2023-07-13T01:26:10;23.63;59.41
79698;SHT31;69168;42.708;23.286;2023-07-13T01:28:37;23.63;59.36
79698;SHT31;69168;42.708;23.286;2023-07-13T01:31:03;23.71;59.25
79698;SHT31;69168;42.708;23.286;2023-07-13T01:33:29;23.64;60.37
79698;SHT31;69168;42.708;23.286;2023-07-13T01:35:54;23.65;59.53
79698;SHT31;69168;42.708;23.286;2023-07-13T01:38:23;23.53;59.95
79698;SHT31;69168;42.708;23.286;2023-07-13T01:40:49;23.50;59.86
79698;SHT31;69168;42.708;23.286;2023-07-13T01:43:14;23.61;60.14
79698;SHT31;69168;42.708;23.286;2023-07-13T01:45:40;23.54;60.23
79698;SHT31;69168;42.708;23.286;2023-07-13T01:48:05;23.61;60.25
79698;SHT31;69168;42.708;23.286;2023-07-13T01:50:32;23.58;60.17
79698;SHT31;69168;42.708;23.286;2023-07-13T01:52:58;23.43;60.61
79698;SHT31;69168;42.708;23.286;2023-07-13T01:55:23;23.40;60.66
79698;SHT31;69168;42.708;23.286;2023-07-13T01:57:49;23.31;60.51
79698;SHT31;69168;42.708;23.286;2023-07-13T02:00:15;23.40;60.35
79698;SHT31;69168;42.708;23.286;2023-07-13T02:02:41;23.47;60.41
79698;SHT31;69168;42.708;23.286;2023-07-13T02:05:06;23.40;60.56
79698;SHT31;69168;42.708;23.286;2023-07-13T02:07:32;23.44;60.79
79698;SHT31;69168;42.708;23.286;2023-07-13T02:09:58;23.23;61.18
79698;SHT31;69168;42.708;23.286;2023-07-13T02:12:23;23.34;61.07
79698;SHT31;69168;42.708;23.286;2023-07-13T02:14:49;23.27;60.91
79698;SHT31;69168;42.708;23.286;2023-07-13T02:17:14;23.39;60.77
79698;SHT31;69168;42.708;23.286;2023-07-13T02:19:39;23.34;60.50
79698;SHT31;69168;42.708;23.286;2023-07-13T02:22:05;23.33;60.17
79698;SHT31;69168;42.708;23.286;2023-07-13T02:24:31;23.31;60.19
79698;SHT31;69168;42.708;23.286;2023-07-13T02:26:57;23.27;60.20
79698;SHT31;69168;42.708;23.286;2023-07-13T02:29:23;23.18;60.54
79698;SHT31;69168;42.708;23.286;2023-07-13T02:31:48;23.23;61.12
79698;SHT31;69168;42.708;23.286;2023-07-13T02:34:13;23.16;61.16
79698;SHT31;69168;42.708;23.286;2023-07-13T02:36:39;23.26;60.36
79698;SHT31;69168;42.708;23.286;2023-07-13T02:39:06;23.16;60.96
79698;SHT31;69168;42.708;23.286;2023-07-13T02:41:32;22.96;61.81
79698;SHT31;69168;42.708;23.286;2023-07-13T02:43:58;23.03;61.57
79698;SHT31;69168;42.708;23.286;2023-07-13T02:46:32;23.03;61.55
79698;SHT31;69168;42.708;23.286;2023-07-13T02:48:58;23.10;61.05
79698;SHT31;69168;42.708;23.286;2023-07-13T02:51:23;23.08;61.63
79698;SHT31;69168;42.708;23.286;2023-07-13T02:53:49;23.09;61.41
79698;SHT31;69168;42.708;23.286;2023-07-13T02:56:14;23.09;61.07
79698;SHT31;69168;42.708;23.286;2023-07-13T02:58:40;23.08;61.35
79698;SHT31;69168;42.708;23.286;2023-07-13T03:01:08;23.03;61.73
79698;SHT31;69168;42.708;23.286;2023-07-13T03:03:33;22.99;61.96
79698;SHT31;69168;42.708;23.286;2023-07-13T03:06:00;22.88;62.12
79698;SHT31;69168;42.708;23.286;2023-07-13T03:08:27;22.64;62.80
79698;SHT31;69168;42.708;23.286;2023-07-13T03:11:00;22.68;62.73
79698;SHT31;69168;42.708;23.286;2023-07-13T03:13:26;22.74;62.69
79698;SHT31;69168;42.708;23.286;2023-07-13T03:15:51;22.85;62.54
79698;SHT31;69168;42.708;23.286;2023-07-13T03:18:17;22.76;62.76
79698;SHT31;69168;42.708;23.286;2023-07-13T03:20:42;22.91;62.51
79698;SHT31;69168;42.708;23.286;2023-07-13T03:23:07;22.87;62.71
79698;SHT31;69168;42.708;23.286;2023-07-13T03:25:33;22.71;63.16
79698;SHT31;69168;42.708;23.286;2023-07-13T03:27:58;22.60;63.51
79698;SHT31;69168;42.708;23.286;2023-07-13T03:30:24;22.53;63.53
79698;SHT31;69168;42.708;23.286;2023-07-13T03:32:49;22.57;63.64
79698;SHT31;69168;42.708;23.286;2023-07-13T03:35:15;22.60;63.81
79698;SHT31;69168;42.708;23.286;2023-07-13T03:37:40;22.69;63.50
79698;SHT31;69168;42.708;23.286;2023-07-13T03:40:08;22.61;63.67
79698;SHT31;69168;42.708;23.286;2023-07-13T03:42:34;22.71;63.41
79698;SHT31;69168;42.708;23.286;2023-07-13T03:44:59;22.79;63.38
79698;SHT31;69168;42.708;23.286;2023-07-13T03:47:24;22.78;63.35
79698;SHT31;69168;42.708;23.286;2023-07-13T03:49:50;22.75;63.56
79698;SHT31;69168;42.708;23.286;2023-07-13T03:52:15;22.78;63.70
79698;SHT31;69168;42.708;23.286;2023-07-13T03:54:41;22.53;63.90
79698;SHT31;69168;42.708;23.286;2023-07-13T03:57:08;22.44;64.56
79698;SHT31;69168;42.708;23.286;2023-07-13T03:59:34;22.23;64.31
79698;SHT31;69168;42.708;23.286;2023-07-13T04:02:01;22.14;64.57
79698;SHT31;69168;42.708;23.286;2023-07-13T04:04:26;22.16;64.83
79698;SHT31;69168;42.708;23.286;2023-07-13T04:06:51;22.16;64.76
79698;SHT31;69168;42.708;23.286;2023-07-13T04:09:19;22.14;64.79
79698;SHT31;69168;42.708;23.286;2023-07-13T04:11:44;22.10;64.87
79698;SHT31;69168;42.708;23.286;2023-07-13T04:14:10;22.47;64.05
79698;SHT31;69168;42.708;23.286;2023-07-13T04:16:35;22.55;63.94
79698;SHT31;69168;42.708;23.286;2023-07-13T04:19:01;22.75;63.38
79698;SHT31;69168;42.708;23.286;2023-07-13T04:21:28;22.68;63.83
79698;SHT31;69168;42.708;23.286;2023-07-13T04:23:54;22.91;63.65
79698;SHT31;69168;42.708;23.286;2023-07-13T04:26:20;22.76;64.29
79698;SHT31;69168;42.708;23.286;2023-07-13T04:28:47;22.79;64.23
79698;SHT31;69168;42.708;23.286;2023-07-13T04:31:13;23.01;63.29
79698;SHT31;69168;42.708;23.286;2023-07-13T04:33:38;23.16;62.92
79698;SHT31;69168;42.708;23.286;2023-07-13T04:36:04;23.23;62.70
79698;SHT31;69168;42.708;23.286;2023-07-13T04:38:31;23.06;63.12
79698;SHT31;69168;42.708;23.286;2023-07-13T04:41:00;23.13;63.03
79698;SHT31;69168;42.708;23.286;2023-07-13T04:43:26;23.23;62.64
79698;SHT31;69168;42.708;23.286;2023-07-13T04:45:52;23.16;62.47
79698;SHT31;69168;42.708;23.286;2023-07-13T04:48:18;22.87;63.28
79698;SHT31;69168;42.708;23.286;2023-07-13T04:50:45;22.79;62.78
79698;SHT31;69168;42.708;23.286;2023-07-13T04:53:11;22.76;63.25
79698;SHT31;69168;42.708;23.286;2023-07-13T04:55:37;22.84;63.20
79698;SHT31;69168;42.708;23.286;2023-07-13T04:58:03;23.16;62.46
79698;SHT31;69168;42.708;23.286;2023-07-13T05:00:28;23.29;61.40
79698;SHT31;69168;42.708;23.286;2023-07-13T05:02:58;23.42;62.09
79698;SHT31;69168;42.708;23.286;2023-07-13T05:05:25;23.54;61.53
79698;SHT31;69168;42.708;23.286;2023-07-13T05:07:51;23.65;61.26
79698;SHT31;69168;42.708;23.286;2023-07-13T05:10:17;23.49;61.28
79698;SHT31;69168;42.708;23.286;2023-07-13T05:12:42;23.47;61.55
79698;SHT31;69168;42.708;23.286;2023-07-13T05:15:08;23.39;61.55
79698;SHT31;69168;42.708;23.286;2023-07-13T05:17:33;23.57;61.36
79698;SHT31;69168;42.708;23.286;2023-07-13T05:19:59;23.46;61.62
79698;SHT31;69168;42.708;23.286;2023-07-13T05:22:24;23.20;61.85
79698;SHT31;69168;42.708;23.286;2023-07-13T05:24:50;23.44;61.24
79698;SHT31;69168;42.708;23.286;2023-07-13T05:27:15;23.49;61.35
79698;SHT31;69168;42.708;23.286;2023-07-13T05:29:41;23.71;60.63
79698;SHT31;69168;42.708;23.286;2023-07-13T05:32:06;23.75;60.64
79698;SHT31;69168;42.708;23.286;2023-07-13T05:34:32;23.77;60.48
79698;SHT31;69168;42.708;23.286;2023-07-13T05:36:57;23.89;59.30
79698;SHT31;69168;42.708;23.286;2023-07-13T05:39:23;23.86;60.02
79698;SHT31;69168;42.708;23.286;2023-07-13T05:41:48;23.88;59.57
79698;SHT31;69168;42.708;23.286;2023-07-13T05:44:14;23.91;59.19
79698;SHT31;69168;42.708;23.286;2023-07-13T05:46:39;23.95;59.22
79698;SHT31;69168;42.708;23.286;2023-07-13T05:49:05;23.88;59.57
79698;SHT31;69168;42.708;23.286;2023-07-13T05:51:30;23.99;59.32
79698;SHT31;69168;42.708;23.286;2023-07-13T05:53:56;24.05;59.19
79698;SHT31;69168;42.708;23.286;2023-07-13T05:56:21;24.08;59.46
79698;SHT31;69168;42.708;23.286;2023-07-13T05:58:48;24.32;59.24
79698;SHT31;69168;42.708;23.286;2023-07-13T06:01:15;24.44;57.91
79698;SHT31;69168;42.708;23.286;2023-07-13T06:03:41;24.49;57.55
79698;SHT31;69168;42.708;23.286;2023-07-13T06:06:08;24.54;57.18
79698;SHT31;69168;42.708;23.286;2023-07-13T06:08:35;24.60;57.81
79698;SHT31;69168;42.708;23.286;2023-07-13T06:11:03;24.65;57.58
79698;SHT31;69168;42.708;23.286;2023-07-13T06:13:28;24.71;57.66
79698;SHT31;69168;42.708;23.286;2023-07-13T06:15:54;24.84;57.45
79698;SHT31;69168;42.708;23.286;2023-07-13T06:18:19;25.02;55.73
79698;SHT31;69168;42.708;23.286;2023-07-13T06:20:45;24.91;56.91
79698;SHT31;69168;42.708;23.286;2023-07-13T06:23:10;24.88;56.90
79698;SHT31;69168;42.708;23.286;2023-07-13T06:25:35;24.73;57.04
79698;SHT31;69168;42.708;23.286;2023-07-13T06:28:01;24.70;58.02
79698;SHT31;69168;42.708;23.286;2023-07-13T06:30:27;24.84;58.00
79698;SHT31;69168;42.708;23.286;2023-07-13T06:32:53;24.87;57.71
79698;SHT31;69168;42.708;23.286;2023-07-13T06:35:18;24.98;57.39
79698;SHT31;69168;42.708;23.286;2023-07-13T06:37:44;25.12;57.45
79698;SHT31;69168;42.708;23.286;2023-07-13T06:40:09;25.22;56.78
79698;SHT31;69168;42.708;23.286;2023-07-13T06:42:35;25.36;56.22
79698;SHT31;69168;42.708;23.286;2023-07-13T06:45:01;25.32;56.70
79698;SHT31;69168;42.708;23.286;2023-07-13T06:47:26;25.35;56.34
79698;SHT31;69168;42.708;23.286;2023-07-13T06:49:52;25.42;56.50
79698;SHT31;69168;42.708;23.286;2023-07-13T06:52:17;25.51;56.78
79698;SHT31;69168;42.708;23.286;2023-07-13T06:54:43;25.60;55.96
79698;SHT31;69168;42.708;23.286;2023-07-13T06:57:08;25.53;55.68
79698;SHT31;69168;42.708;23.286;2023-07-13T06:59:34;25.57;54.11
79698;SHT31;69168;42.708;23.286;2023-07-13T07:01:59;25.66;53.51
79698;SHT31;69168;42.708;23.286;2023-07-13T07:04:25;25.77;53.69
79698;SHT31;69168;42.708;23.286;2023-07-13T07:06:50;25.81;54.09
79698;SHT31;69168;42.708;23.286;2023-07-13T07:09:16;25.75;53.14
79698;SHT31;69168;42.708;23.286;2023-07-13T07:11:41;25.88;53.23
79698;SHT31;69168;42.708;23.286;2023-07-13T07:14:07;25.93;53.08
79698;SHT31;69168;42.708;23.286;2023-07-13T07:16:33;25.90;53.45
79698;SHT31;69168;42.708;23.286;2023-07-13T07:18:58;26.00;54.06
79698;SHT31;69168;42.708;23.286;2023-07-13T07:21:24;26.02;53.96
79698;SHT31;69168;42.708;23.286;2023-07-13T07:23:49;26.00;53.72
79698;SHT31;69168;42.708;23.286;2023-07-13T07:26:14;26.04;52.90
79698;SHT31;69168;42.708;23.286;2023-07-13T07:28:40;26.12;53.07
79698;SHT31;69168;42.708;23.286;2023-07-13T07:31:06;26.09;52.55
79698;SHT31;69168;42.708;23.286;2023-07-13T07:33:33;26.18;52.91
79698;SHT31;69168;42.708;23.286;2023-07-13T07:35:58;26.15;53.93
79698;SHT31;69168;42.708;23.286;2023-07-13T07:38:24;26.24;53.23
79698;SHT31;69168;42.708;23.286;2023-07-13T07:40:49;26.35;52.71
79698;SHT31;69168;42.708;23.286;2023-07-13T07:43:15;26.38;52.70
79698;SHT31;69168;42.708;23.286;2023-07-13T07:45:40;26.45;52.79
79698;SHT31;69168;42.708;23.286;2023-07-13T07:48:07;26.47;52.77
79698;SHT31;69168;42.708;23.286;2023-07-13T07:50:34;26.73;52.62
79698;SHT31;69168;42.708;23.286;2023-07-13T07:53:00;26.72;52.96
79698;SHT31;69168;42.708;23.286;2023-07-13T07:55:27;26.77;53.12
79698;SHT31;69168;42.708;23.286;2023-07-13T07:57:53;26.74;52.52
79698;SHT31;69168;42.708;23.286;2023-07-13T08:00:19;26.86;52.43
79698;SHT31;69168;42.708;23.286;2023-07-13T08:02:45;26.88;52.38
79698;SHT31;69168;42.708;23.286;2023-07-13T08:05:10;26.95;52.68
79698;SHT31;69168;42.708;23.286;2023-07-13T08:07:39;27.07;51.94
79698;SHT31;69168;42.708;23.286;2023-07-13T08:10:08;27.05;52.70
79698;SHT31;69168;42.708;23.286;2023-07-13T08:12:37;27.10;52.66
79698;SHT31;69168;42.708;23.286;2023-07-13T08:15:04;27.16;53.29
79698;SHT31;69168;42.708;23.286;2023-07-13T08:17:30;27.28;53.77
79698;SHT31;69168;42.708;23.286;2023-07-13T08:19:56;27.41;52.42
79698;SHT31;69168;42.708;23.286;2023-07-13T08:22:21;27.41;52.96
79698;SHT31;69168;42.708;23.286;2023-07-13T08:24:47;27.41;54.19
79698;SHT31;69168;42.708;23.286;2023-07-13T08:27:20;27.50;52.94
79698;SHT31;69168;42.708;23.286;2023-07-13T08:29:47;27.53;52.31
79698;SHT31;69168;42.708;23.286;2023-07-13T08:32:13;27.65;52.22
79698;SHT31;69168;42.708;23.286;2023-07-13T08:34:39;27.76;53.57
79698;SHT31;69168;42.708;23.286;2023-07-13T08:37:05;27.77;53.12
79698;SHT31;69168;42.708;23.286;2023-07-13T08:39:31;27.80;52.60
79698;SHT31;69168;42.708;23.286;2023-07-13T08:41:58;27.82;52.77
79698;SHT31;69168;42.708;23.286;2023-07-13T08:47:08;27.97;52.14
79698;SHT31;69168;42.708;23.286;2023-07-13T08:49:35;28.08;52.33
79698;SHT31;69168;42.708;23.286;2023-07-13T08:52:29;28.14;51.86
79698;SHT31;69168;42.708;23.286;2023-07-13T08:54:58;28.18;51.37
79698;SHT31;69168;42.708;23.286;2023-07-13T08:57:31;28.25;50.98
79698;SHT31;69168;42.708;23.286;2023-07-13T08:59:58;28.60;48.26
79698;SHT31;69168;42.708;23.286;2023-07-13T09:02:34;28.45;49.41
79698;SHT31;69168;42.708;23.286;2023-07-13T09:05:12;28.44;50.28
79698;SHT31;69168;42.708;23.286;2023-07-13T09:10:15;28.65;49.07
79698;SHT31;69168;42.708;23.286;2023-07-13T09:17:51;28.82;49.26
79698;SHT31;69168;42.708;23.286;2023-07-13T09:20:31;28.79;50.79
79698;SHT31;69168;42.708;23.286;2023-07-13T09:23:01;29.00;47.54
79698;SHT31;69168;42.708;23.286;2023-07-13T09:28:02;29.11;49.00
79698;SHT31;69168;42.708;23.286;2023-07-13T09:30:42;29.13;47.61
79698;SHT31;69168;42.708;23.286;2023-07-13T09:33:09;29.15;46.70
79698;SHT31;69168;42.708;23.286;2023-07-13T09:35:35;29.31;47.85
79698;SHT31;69168;42.708;23.286;2023-07-13T09:38:13;29.28;47.01
79698;SHT31;69168;42.708;23.286;2023-07-13T09:43:22;29.51;47.62
79698;SHT31;69168;42.708;23.286;2023-07-13T09:45:47;29.48;47.61
79698;SHT31;69168;42.708;23.286;2023-07-13T09:48:15;29.65;47.50
79698;SHT31;69168;42.708;23.286;2023-07-13T09:50:42;29.77;46.18
79698;SHT31;69168;42.708;23.286;2023-07-13T09:53:16;29.87;43.11
79698;SHT31;69168;42.708;23.286;2023-07-13T09:55:47;30.21;39.96
79698;SHT31;69168;42.708;23.286;2023-07-13T09:58:22;30.34;39.45
79698;SHT31;69168;42.708;23.286;2023-07-13T10:01:00;30.54;38.05
79698;SHT31;69168;42.708;23.286;2023-07-13T10:03:27;30.75;36.76
79698;SHT31;69168;42.708;23.286;2023-07-13T10:05:54;30.99;35.27
79698;SHT31;69168;42.708;23.286;2023-07-13T10:08:26;31.02;35.75
79698;SHT31;69168;42.708;23.286;2023-07-13T10:11:29;31.17;35.50
79698;SHT31;69168;42.708;23.286;2023-07-13T10:13:59;31.24;35.64
79698;SHT31;69168;42.708;23.286;2023-07-13T10:16:28;31.35;36.13
79698;SHT31;69168;42.708;23.286;2023-07-13T10:19:00;31.37;33.49
79698;SHT31;69168;42.708;23.286;2023-07-13T10:21:32;31.50;35.15
79698;SHT31;69168;42.708;23.286;2023-07-13T10:24:09;31.57;34.24
79698;SHT31;69168;42.708;23.286;2023-07-13T10:26:41;31.57;34.87
79698;SHT31;69168;42.708;23.286;2023-07-13T10:29:11;31.57;35.43
79698;SHT31;69168;42.708;23.286;2023-07-13T10:31:40;31.71;34.10
79698;SHT31;69168;42.708;23.286;2023-07-13T10:34:10;31.71;34.90
79698;SHT31;69168;42.708;23.286;2023-07-13T10:36:42;31.96;34.06
79698;SHT31;69168;42.708;23.286;2023-07-13T10:39:27;31.96;33.10
79698;SHT31;69168;42.708;23.286;2023-07-13T10:41:55;31.99;32.75
79698;SHT31;69168;42.708;23.286;2023-07-13T10:44:31;32.13;32.46
79698;SHT31;69168;42.708;23.286;2023-07-13T10:47:03;32.23;32.27
79698;SHT31;69168;42.708;23.286;2023-07-13T10:49:32;32.26;32.82
79698;SHT31;69168;42.708;23.286;2023-07-13T10:51:58;32.31;32.08
79698;SHT31;69168;42.708;23.286;2023-07-13T10:56:52;32.50;31.77
79698;SHT31;69168;42.708;23.286;2023-07-13T10:59:24;32.63;32.24
79698;SHT31;69168;42.708;23.286;2023-07-13T11:02:01;32.71;31.80
79698;SHT31;69168;42.708;23.286;2023-07-13T11:04:44;32.92;31.16
79698;SHT31;69168;42.708;23.286;2023-07-13T11:07:11;32.96;30.03
79698;SHT31;69168;42.708;23.286;2023-07-13T11:09:38;33.08;29.98
79698;SHT31;69168;42.708;23.286;2023-07-13T11:12:25;33.12;30.24
79698;SHT31;69168;42.708;23.286;2023-07-13T11:22:46;33.49;29.73
79698;SHT31;69168;42.708;23.286;2023-07-13T11:30:48;34.11;29.73
79698;SHT31;69168;42.708;23.286;2023-07-13T11:38:39;34.38;29.22
79698;SHT31;69168;42.708;23.286;2023-07-13T11:41:19;34.76;29.65
79698;SHT31;69168;42.708;23.286;2023-07-13T11:43:49;35.07;30.04
79698;SHT31;69168;42.708;23.286;2023-07-13T11:46:26;35.21;30.82
79698;SHT31;69168;42.708;23.286;2023-07-13T11:48:52;35.04;28.81
79698;SHT31;69168;42.708;23.286;2023-07-13T11:51:27;35.14;28.66
79698;SHT31;69168;42.708;23.286;2023-07-13T11:53:55;35.65;28.63
79698;SHT31;69168;42.708;23.286;2023-07-13T11:56:23;35.70;29.11
79698;SHT31;69168;42.708;23.286;2023-07-13T11:58:54;35.55;29.01
79698;SHT31;69168;42.708;23.286;2023-07-13T12:01:26;35.66;29.32
79698;SHT31;69168;42.708;23.286;2023-07-13T12:03:59;36.16;29.11
79698;SHT31;69168;42.708;23.286;2023-07-13T12:06:31;36.45;28.77
79698;SHT31;69168;42.708;23.286;2023-07-13T12:09:02;36.20;28.43
79698;SHT31;69168;42.708;23.286;2023-07-13T12:11:29;36.58;27.95
79698;SHT31;69168;42.708;23.286;2023-07-13T12:13:54;36.86;26.93
79698;SHT31;69168;42.708;23.286;2023-07-13T12:16:28;37.14;27.16
79698;SHT31;69168;42.708;23.286;2023-07-13T12:18:55;37.31;28.17
79698;SHT31;69168;42.708;23.286;2023-07-13T12:21:28;37.33;28.08
79698;SHT31;69168;42.708;23.286;2023-07-13T12:23:55;37.60;27.09
79698;SHT31;69168;42.708;23.286;2023-07-13T12:26:20;37.71;26.11
79698;SHT31;69168;42.708;23.286;2023-07-13T12:28:49;37.81;25.70
79698;SHT31;69168;42.708;23.286;2023-07-13T12:33:56;38.30;26.11
79698;SHT31;69168;42.708;23.286;2023-07-13T12:36:22;38.60;25.45
79698;SHT31;69168;42.708;23.286;2023-07-13T12:38:48;38.76;24.33
79698;SHT31;69168;42.708;23.286;2023-07-13T12:41:15;38.94;25.09
79698;SHT31;69168;42.708;23.286;2023-07-13T12:43:40;38.64;24.96
79698;SHT31;69168;42.708;23.286;2023-07-13T12:46:26;38.46;25.42
79698;SHT31;69168;42.708;23.286;2023-07-13T12:48:54;38.34;25.71
79698;SHT31;69168;42.708;23.286;2023-07-13T12:51:26;38.50;24.48
79698;SHT31;69168;42.708;23.286;2023-07-13T12:53:57;38.46;25.01
79698;SHT31;69168;42.708;23.286;2023-07-13T12:56:26;38.86;24.98
79698;SHT31;69168;42.708;23.286;2023-07-13T12:58:58;38.92;24.67
79698;SHT31;69168;42.708;23.286;2023-07-13T13:01:27;39.36;25.32
79698;SHT31;69168;42.708;23.286;2023-07-13T13:03:54;39.18;24.56
79698;SHT31;69168;42.708;23.286;2023-07-13T13:08:51;38.82;25.19
79698;SHT31;69168;42.708;23.286;2023-07-13T13:11:17;39.15;24.98
79698;SHT31;69168;42.708;23.286;2023-07-13T13:13:44;39.22;25.32
79698;SHT31;69168;42.708;23.286;2023-07-13T13:18:35;39.25;23.83
79698;SHT31;69168;42.708;23.286;2023-07-13T13:21:01;39.58;24.45
79698;SHT31;69168;42.708;23.286;2023-07-13T13:23:26;39.27;25.28
79698;SHT31;69168;42.708;23.286;2023-07-13T13:25:52;38.94;25.16
79698;SHT31;69168;42.708;23.286;2023-07-13T13:28:21;38.74;25.76
79698;SHT31;69168;42.708;23.286;2023-07-13T13:30:48;38.99;24.78
79698;SHT31;69168;42.708;23.286;2023-07-13T13:33:16;38.96;24.41
79698;SHT31;69168;42.708;23.286;2023-07-13T13:35:41;38.64;25.58
79698;SHT31;69168;42.708;23.286;2023-07-13T13:38:20;39.01;25.69
79698;SHT31;69168;42.708;23.286;2023-07-13T13:40:46;39.43;25.16
79698;SHT31;69168;42.708;23.286;2023-07-13T13:43:25;39.12;24.61
79698;SHT31;69168;42.708;23.286;2023-07-13T13:45:56;39.06;24.39
79698;SHT31;69168;42.708;23.286;2023-07-13T13:48:31;39.02;24.19
79698;SHT31;69168;42.708;23.286;2023-07-13T13:50:57;39.23;25.03
79698;SHT31;69168;42.708;23.286;2023-07-13T13:53:23;38.81;24.00
79698;SHT31;69168;42.708;23.286;2023-07-13T13:55:49;39.08;24.79
79698;SHT31;69168;42.708;23.286;2023-07-13T13:58:15;39.43;24.17
79698;SHT31;69168;42.708;23.286;2023-07-13T14:00:41;39.50;23.59
79698;SHT31;69168;42.708;23.286;2023-07-13T14:03:18;39.45;23.62
79698;SHT31;69168;42.708;23.286;2023-07-13T14:05:44;39.43;23.45
79698;SHT31;69168;42.708;23.286;2023-07-13T14:08:19;39.50;22.98
79698;SHT31;69168;42.708;23.286;2023-07-13T14:10:48;39.57;23.58
79698;SHT31;69168;42.708;23.286;2023-07-13T14:13:22;39.58;23.87
79698;SHT31;69168;42.708;23.286;2023-07-13T14:15:52;39.25;24.25
79698;SHT31;69168;42.708;23.286;2023-07-13T14:18:18;39.54;24.22
79698;SHT31;69168;42.708;23.286;2023-07-13T14:20:44;39.56;23.85
79698;SHT31;69168;42.708;23.286;2023-07-13T14:23:12;39.49;25.16
79698;SHT31;69168;42.708;23.286;2023-07-13T14:25:37;39.75;24.44
79698;SHT31;69168;42.708;23.286;2023-07-13T14:30:43;39.77;24.51
79698;SHT31;69168;42.708;23.286;2023-07-13T14:33:10;39.27;24.69
79698;SHT31;69168;42.708;23.286;2023-07-13T14:35:36;39.54;24.54
79698;SHT31;69168;42.708;23.286;2023-07-13T14:38:02;38.74;26.00
79698;SHT31;69168;42.708;23.286;2023-07-13T14:40:30;39.11;25.86
79698;SHT31;69168;42.708;23.286;2023-07-13T14:42:55;39.66;25.49
79698;SHT31;69168;42.708;23.286;2023-07-13T14:45:21;39.84;25.86
79698;SHT31;69168;42.708;23.286;2023-07-13T14:47:47;39.60;25.29
79698;SHT31;69168;42.708;23.286;2023-07-13T14:50:18;40.04;24.85
79698;SHT31;69168;42.708;23.286;2023-07-13T14:52:45;39.46;25.89
79698;SHT31;69168;42.708;23.286;2023-07-13T14:55:14;39.78;25.29
79698;SHT31;69168;42.708;23.286;2023-07-13T14:57:40;39.83;25.88
79698;SHT31;69168;42.708;23.286;2023-07-13T15:00:20;39.09;26.82
79698;SHT31;69168;42.708;23.286;2023-07-13T15:02:55;39.53;25.10
79698;SHT31;69168;42.708;23.286;2023-07-13T15:05:24;39.68;26.53
79698;SHT31;69168;42.708;23.286;2023-07-13T15:07:51;39.46;26.06
79698;SHT31;69168;42.708;23.286;2023-07-13T15:10:22;39.54;26.45
79698;SHT31;69168;42.708;23.286;2023-07-13T15:12:56;39.80;26.01
79698;SHT31;69168;42.708;23.286;2023-07-13T15:15:22;39.49;25.74
79698;SHT31;69168;42.708;23.286;2023-07-13T15:17:48;39.39;26.74
79698;SHT31;69168;42.708;23.286;2023-07-13T15:20:29;39.36;26.62
79698;SHT31;69168;42.708;23.286;2023-07-13T15:22:56;39.08;27.14
79698;SHT31;69168;42.708;23.286;2023-07-13T15:25:24;39.03;27.43
79698;SHT31;69168;42.708;23.286;2023-07-13T15:27:54;39.58;26.90
79698;SHT31;69168;42.708;23.286;2023-07-13T15:30:20;39.33;26.83
79698;SHT31;69168;42.708;23.286;2023-07-13T15:32:47;39.78;26.85
79698;SHT31;69168;42.708;23.286;2023-07-13T15:35:18;39.77;26.44
79698;SHT31;69168;42.708;23.286;2023-07-13T15:37:43;39.15;27.09
79698;SHT31;69168;42.708;23.286;2023-07-13T15:40:10;39.06;26.46
79698;SHT31;69168;42.708;23.286;2023-07-13T15:42:37;38.84;26.97
79698;SHT31;69168;42.708;23.286;2023-07-13T15:45:15;38.63;27.24
79698;SHT31;69168;42.708;23.286;2023-07-13T15:47:42;38.91;27.23
79698;SHT31;69168;42.708;23.286;2023-07-13T15:50:21;39.23;27.03
79698;SHT31;69168;42.708;23.286;2023-07-13T15:52:49;38.79;27.56
79698;SHT31;69168;42.708;23.286;2023-07-13T15:55:15;39.02;27.80
79698;SHT31;69168;42.708;23.286;2023-07-13T15:57:50;39.25;27.60
79698;SHT31;69168;42.708;23.286;2023-07-13T16:00:23;39.09;27.38
79698;SHT31;69168;42.708;23.286;2023-07-13T16:02:49;39.37;27.62
79698;SHT31;69168;42.708;23.286;2023-07-13T16:05:16;39.20;27.60